Terminal Aerodrome Forecast
Issued by NWS

Home | Current Version | Previous Version | Text Only | Print | Product List | Glossary On
Versions: 1 2 3 4 5 6 7 8 9 10 11 12 13
095
FTUS42 TJSJ 271217 AAA
TAFISX
TAF AMD
TISX 271217Z 2712/2812 11012KT P6SM SCT030
     FM272300 06008KT P6SM SCT025=

USA.gov is the U.S. government's official web portal to all federal, state and local government web resources and services.